x

Fripp Nearshore (frp 2) (41033) Weather Station

5:00am - Wed 5th Aug 2015 All times are EDT. -4 hours from GMT.

  • Wind
    11mph, 16mph gusts
  • Air Temp 82°f
  • Sea Pressure 1016.5mb
  • Fripp Nearshore (frp 2)
  • Fripp Nearshore (frp 2)

More Historic Weather Station data

Upgrade to MSW Pro to gain access to the past 30 days of data for over 8000 Wavebouys and Weather Stations around the globe.

Join Pro

Comparision Forecast

View Surf forecast
   
Wed 08/05 5:00am 11 16 mph 1016.5mb 82f
4:00am 11 13 mph 1016.4mb 83f
3:00am 16 18 mph 1016.1mb 83f
2:00am 16 20 mph 1016.2mb 83f
1:00am 16 20 mph 1016.3mb 84f
12:00am 18 20 mph 1016.1mb 85f
Tue 08/04 11:00pm 18 20 mph 1015.5mb 85f
10:00pm 18 20 mph 1015.2mb 84f
9:00pm 16 20 mph 1014.9mb 84f
8:00pm 16 20 mph 1014.5mb 84f
6:00pm 18 20 mph 1014.5mb 85f
5:00pm 18 20 mph 1014.5mb 84f
4:00pm 13
mph
1014.5mb 84f
3:00pm 9 11 mph 1014.8mb 86f
2:00pm 9 11 mph 1015.2mb 85f
1:00pm 2 4 mph 1015.5mb 87f
12:00pm 7 11 mph 1015.3mb 83f
11:00am 9 11 mph 1015.1mb 81f
10:00am 11 13 mph 1014.6mb 79f
9:00am 9 13 mph 1014.3mb 79f
8:00am 13 18 mph 1013.6mb 78f
7:00am 13 16 mph 1013mb 79f
6:00am 9 11 mph 1012.7mb 79f
5:00am 11 16 mph 1011.4mb 80f
4:00am 4 7 mph 1011.3mb 80f
3:00am 7 11 mph 1011.3mb 79f
2:00am 13 16 mph 1011.3mb 82f
1:00am 16 18 mph 1011.7mb 81f
12:00am 18 22 mph 1011.9mb 79f
Mon 08/03 11:00pm 18 20 mph 1012.2mb 80f
10:00pm 13 18 mph 1012mb 80f
9:00pm 11 16 mph 1011.7mb 79f
7:00pm 16 18 mph 1011.7mb 82f
6:00pm 11 16 mph 1012.1mb 84f
5:00pm 13 16 mph 1012.3mb 84f
4:00pm 13 18 mph 1012.4mb 84f
3:00pm 11 16 mph 1012.6mb 84f
2:00pm 18 20 mph 1012.8mb 85f
1:00pm 18 22 mph 1013.2mb 83f
12:00pm 18 20 mph 1013.1mb 84f
11:00am 18 20 mph 1013.3mb 84f
10:00am 16 18 mph 1013.1mb 84f
9:00am 16 20 mph 1013mb 83f
8:00am 20 22 mph 1012.6mb 82f
7:00am 16 20 mph 1012.5mb 82f
6:00am 18 22 mph 1012mb 82f
5:00am 18 22 mph 1011.7mb 82f
4:00am 18 25 mph 1011.6mb 82f
3:00am 18 22 mph 1011.7mb 82f
2:00am 20 25 mph 1011.8mb 82f
1:00am 20 25 mph 1012.2mb 82f
12:00am 18 22 mph 1012.3mb 82f
Sun 08/02 10:00pm 11 16 mph 1012.3mb 82f
9:00pm 18
mph
1011.9mb 81f
8:00pm 11 16 mph 1011.8mb 82f
7:00pm 4 7 mph 1012.6mb 79f
6:00pm 13 16 mph 1013mb 79f
5:00pm 9 13 mph 1013.2mb 78f
3:00pm 11 13 mph 1013.5mb 83f
2:00pm 9 11 mph 1013.8mb 82f
1:00pm 9 11 mph 1013.5mb 83f
12:00pm 7 9 mph 1013.8mb 81f
11:00am 11 13 mph 1013.6mb 83f
10:00am 9 11 mph 1013.2mb 80f
9:00am 7 9 mph 1013.1mb 82f
8:00am 4 7 mph 1012.9mb 82f
7:00am 9 11 mph 1012.6mb 80f
6:00am 11 16 mph 1012mb 82f
5:00am 13 16 mph 1011.9mb 82f
4:00am 13 16 mph 1012mb 82f
3:00am 13 16 mph 1012.2mb 82f
2:00am 13 16 mph 1012.8mb 82f
1:00am 11 13 mph 1012.9mb 82f
12:00am 11 13 mph 1012.9mb 82f
Sat 08/01 9:00pm 9 11 mph 1012.2mb 81f
8:00pm 13 16 mph 1011.7mb 82f
7:00pm 11 16 mph 1011.7mb 82f
6:00pm 13 18 mph 1012.1mb 82f
5:00pm 13
mph
1012.4mb 83f
4:00pm 11 13 mph 1012.4mb 81f
3:00pm 13 18 mph 1013.1mb 82f
2:00pm 11 13 mph 1013.5mb 85f
1:00pm 4 7 mph 1013.8mb 87f
12:00pm 4 7 mph 1013.7mb 84f
11:00am 4 7 mph 1013.4mb 83f